Newport, NC (28570)

9:53 PM EDT on September 15, 2014 (GMT -0400)
Pine Ridge Acres | Change Station
CLOSE
Current Station
Personal Weather Station
Location: Newport, NC
Elevation: 33 ft
Nearby Weather Stations

Elev 33 ft 34.78 °N, 76.90 °W | Updated 3 minutes ago

Mostly Cloudy
Mostly Cloudy
71.1 °F
Feels Like 71.1 °F
N
0.0
Wind Variable Wind from NE
Gusts 1.0 mph

Today
High -- | Low -- °F
--% Chance of Precip.
Yesterday
High -- | Low -- °F
Precip. -- in
6:50 AM 7:14 PM
Waning Gibbous, 50% visible
Pressure 30.14 in
Visibility 10.0 miles
Clouds Overcast 2600 ft
Dew Point 68 °F
Humidity 91%
Rainfall 0.00 in
Snow Depth Not available.
UV 0 out of 12
Pollen 6.10 out of 12
Air Quality Not available.
Flu Activity Not available.
METAR KNKT 160054Z 00000KT 10SM OVC026 23/19 A3015 RMK AO2 SLP206 T02280189

More Conditions Fewer Conditions

Pressure 30.14 in
Visibility 10.0 miles
Clouds Overcast 2600 ft
Dew Point 68 °F
Humidity 91%
Rainfall 0.00 in
Snow Depth Not available.
UV 0 out of 12
Pollen 6.10 out of 12
Air Quality Not available.
Flu Activity Not available.
METAR KNKT 160054Z 00000KT 10SM OVC026 23/19 A3015 RMK AO2 SLP206 T02280189

More Conditions Fewer Conditions

10-Day Weather Forecast

Almanac

Astronomy

Sep. 15, 2014 Rise Set
Actual Time 6:50 AM EDT 7:14 PM EDT
Civil Twilight 6:25 AM EDT 7:39 PM EDT
Nautical Twilight 5:55 AM EDT 8:09 PM EDT
Astronomical Twilight 5:25 AM EDT 8:39 PM EDT
Moon No Moon Rise 1:34 PM EDT (9/15)
Length of Visible Light 13h 14m
Length of Day
12h 23m
Tomorrow will be 2m 8s shorter.
Waning Gibbous, 50% of the Moon is Illuminated
Today
Waning Gibbous
Sep 15
Last Quarter
Sep 24
New
Oct 1
First Quarter
Oct 8
Full

Today's Extremes

State Highs State Lows

Community

WunderPhotos

Upload Photos

1,753,643 photos uploaded!

WunderBlogs® & News

Nearby

Snow Depth

Station Depth Elevation
No new snow has been reported.

Earthquake Activity

City Distance Mag. Time & Date
No recent earthquake activity has been reported nearby.
Minimum magnitude displayed is 2.5.

Coastal Water Temperatures

Place Temperature
Beaufort, NC 79.0 °F
Johnny Mercer Pier, Wrightsville Beach, NC 82.0 °F
Hatteras, NC 78.1 °F
Oregon Inlet Marina, NC 73.9 °F

Nearby Weather Stations